sensor_id;sensor_type;location;lat;lon;timestamp;temperature;humidity
45491;DHT22;31237;45.586;13.782;2023-07-29T00:01:44;21.10;88.50
45491;DHT22;31237;45.586;13.782;2023-07-29T00:04:11;21.10;88.60
45491;DHT22;31237;45.586;13.782;2023-07-29T00:06:37;21.10;88.60
45491;DHT22;31237;45.586;13.782;2023-07-29T00:09:03;21.10;88.60
45491;DHT22;31237;45.586;13.782;2023-07-29T00:11:28;21.10;88.60
45491;DHT22;31237;45.586;13.782;2023-07-29T00:13:54;21.10;88.70
45491;DHT22;31237;45.586;13.782;2023-07-29T00:16:20;21.10;88.70
45491;DHT22;31237;45.586;13.782;2023-07-29T00:18:49;21.10;88.70
45491;DHT22;31237;45.586;13.782;2023-07-29T00:21:15;21.00;88.70
45491;DHT22;31237;45.586;13.782;2023-07-29T00:23:40;21.00;88.70
45491;DHT22;31237;45.586;13.782;2023-07-29T00:26:06;21.00;88.70
45491;DHT22;31237;45.586;13.782;2023-07-29T00:28:32;21.00;88.80
45491;DHT22;31237;45.586;13.782;2023-07-29T00:30:57;21.00;88.80
45491;DHT22;31237;45.586;13.782;2023-07-29T00:33:23;21.00;88.90
45491;DHT22;31237;45.586;13.782;2023-07-29T00:35:49;21.00;89.00
45491;DHT22;31237;45.586;13.782;2023-07-29T00:38:14;21.00;89.00
45491;DHT22;31237;45.586;13.782;2023-07-29T00:40:40;21.00;89.10
45491;DHT22;31237;45.586;13.782;2023-07-29T00:43:06;21.00;89.20
45491;DHT22;31237;45.586;13.782;2023-07-29T00:45:32;21.00;89.20
45491;DHT22;31237;45.586;13.782;2023-07-29T00:47:59;21.00;89.20
45491;DHT22;31237;45.586;13.782;2023-07-29T00:50:25;21.00;89.30
45491;DHT22;31237;45.586;13.782;2023-07-29T00:52:53;21.00;89.40
45491;DHT22;31237;45.586;13.782;2023-07-29T00:55:19;21.00;89.50
45491;DHT22;31237;45.586;13.782;2023-07-29T00:57:45;21.00;89.60
45491;DHT22;31237;45.586;13.782;2023-07-29T01:00:14;21.00;89.60
45491;DHT22;31237;45.586;13.782;2023-07-29T01:02:42;21.00;89.60
45491;DHT22;31237;45.586;13.782;2023-07-29T01:05:08;21.00;89.60
45491;DHT22;31237;45.586;13.782;2023-07-29T01:07:44;21.00;89.70
45491;DHT22;31237;45.586;13.782;2023-07-29T01:10:34;21.10;89.80
45491;DHT22;31237;45.586;13.782;2023-07-29T01:13:25;21.10;89.90
45491;DHT22;31237;45.586;13.782;2023-07-29T01:18:30;21.00;89.90
45491;DHT22;31237;45.586;13.782;2023-07-29T01:21:00;21.10;90.00
45491;DHT22;31237;45.586;13.782;2023-07-29T01:23:33;21.10;90.00
45491;DHT22;31237;45.586;13.782;2023-07-29T01:25:59;21.10;90.00
45491;DHT22;31237;45.586;13.782;2023-07-29T01:28:27;21.10;90.00
45491;DHT22;31237;45.586;13.782;2023-07-29T01:33:40;21.10;90.00
45491;DHT22;31237;45.586;13.782;2023-07-29T01:36:13;21.10;90.00
45491;DHT22;31237;45.586;13.782;2023-07-29T01:38:41;21.10;90.00
45491;DHT22;31237;45.586;13.782;2023-07-29T01:41:09;21.10;90.00
45491;DHT22;31237;45.586;13.782;2023-07-29T01:43:36;21.10;90.10
45491;DHT22;31237;45.586;13.782;2023-07-29T01:46:13;21.10;90.10
45491;DHT22;31237;45.586;13.782;2023-07-29T01:48:39;21.10;90.10
45491;DHT22;31237;45.586;13.782;2023-07-29T01:51:06;21.10;90.10
45491;DHT22;31237;45.586;13.782;2023-07-29T01:53:32;21.10;90.10
45491;DHT22;31237;45.586;13.782;2023-07-29T01:55:58;21.10;90.10
45491;DHT22;31237;45.586;13.782;2023-07-29T01:58:33;21.10;90.20
45491;DHT22;31237;45.586;13.782;2023-07-29T02:00:59;21.00;90.20
45491;DHT22;31237;45.586;13.782;2023-07-29T02:03:24;21.10;90.20
45491;DHT22;31237;45.586;13.782;2023-07-29T02:05:50;21.10;90.20
45491;DHT22;31237;45.586;13.782;2023-07-29T02:08:16;21.00;90.20
45491;DHT22;31237;45.586;13.782;2023-07-29T02:10:41;21.00;90.20
45491;DHT22;31237;45.586;13.782;2023-07-29T02:13:10;21.10;90.30
45491;DHT22;31237;45.586;13.782;2023-07-29T02:15:36;21.10;90.30
45491;DHT22;31237;45.586;13.782;2023-07-29T02:18:01;21.10;90.30
45491;DHT22;31237;45.586;13.782;2023-07-29T02:20:29;21.10;90.40
45491;DHT22;31237;45.586;13.782;2023-07-29T02:22:54;21.10;90.40
45491;DHT22;31237;45.586;13.782;2023-07-29T02:25:20;21.10;90.40
45491;DHT22;31237;45.586;13.782;2023-07-29T02:27:46;21.10;90.40
45491;DHT22;31237;45.586;13.782;2023-07-29T02:30:11;21.10;90.40
45491;DHT22;31237;45.586;13.782;2023-07-29T02:32:38;21.10;90.50
45491;DHT22;31237;45.586;13.782;2023-07-29T02:35:04;21.10;90.50
45491;DHT22;31237;45.586;13.782;2023-07-29T02:37:30;21.10;90.50
45491;DHT22;31237;45.586;13.782;2023-07-29T02:39:56;21.10;90.50
45491;DHT22;31237;45.586;13.782;2023-07-29T02:42:22;21.10;90.50
45491;DHT22;31237;45.586;13.782;2023-07-29T02:44:47;21.10;90.60
45491;DHT22;31237;45.586;13.782;2023-07-29T02:47:13;21.10;90.60
45491;DHT22;31237;45.586;13.782;2023-07-29T02:49:39;21.10;90.60
45491;DHT22;31237;45.586;13.782;2023-07-29T02:52:05;21.10;90.60
45491;DHT22;31237;45.586;13.782;2023-07-29T02:54:30;21.10;90.60
45491;DHT22;31237;45.586;13.782;2023-07-29T02:56:56;21.10;90.60
45491;DHT22;31237;45.586;13.782;2023-07-29T02:59:22;21.10;90.60
45491;DHT22;31237;45.586;13.782;2023-07-29T03:01:47;21.10;90.70
45491;DHT22;31237;45.586;13.782;2023-07-29T03:04:13;21.10;90.70
45491;DHT22;31237;45.586;13.782;2023-07-29T03:06:39;21.10;90.70
45491;DHT22;31237;45.586;13.782;2023-07-29T03:09:04;21.10;90.80
45491;DHT22;31237;45.586;13.782;2023-07-29T03:11:30;21.10;90.80
45491;DHT22;31237;45.586;13.782;2023-07-29T03:13:56;21.10;90.80
45491;DHT22;31237;45.586;13.782;2023-07-29T03:16:22;21.10;90.90
45491;DHT22;31237;45.586;13.782;2023-07-29T03:18:49;21.10;90.90
45491;DHT22;31237;45.586;13.782;2023-07-29T03:21:14;21.10;90.90
45491;DHT22;31237;45.586;13.782;2023-07-29T03:23:40;21.10;91.00
45491;DHT22;31237;45.586;13.782;2023-07-29T03:26:06;21.10;91.00
45491;DHT22;31237;45.586;13.782;2023-07-29T03:28:40;21.10;91.10
45491;DHT22;31237;45.586;13.782;2023-07-29T03:31:06;21.10;91.10
45491;DHT22;31237;45.586;13.782;2023-07-29T03:33:32;21.10;91.10
45491;DHT22;31237;45.586;13.782;2023-07-29T03:35:58;21.10;91.10
45491;DHT22;31237;45.586;13.782;2023-07-29T03:38:24;21.10;91.20
45491;DHT22;31237;45.586;13.782;2023-07-29T03:40:50;21.10;91.20
45491;DHT22;31237;45.586;13.782;2023-07-29T03:43:16;21.10;91.30
45491;DHT22;31237;45.586;13.782;2023-07-29T03:45:42;21.10;91.30
45491;DHT22;31237;45.586;13.782;2023-07-29T03:48:08;21.10;91.30
45491;DHT22;31237;45.586;13.782;2023-07-29T03:50:35;21.10;91.40
45491;DHT22;31237;45.586;13.782;2023-07-29T03:53:04;21.10;91.40
45491;DHT22;31237;45.586;13.782;2023-07-29T03:55:30;21.10;91.50
45491;DHT22;31237;45.586;13.782;2023-07-29T03:58:00;21.10;91.60
45491;DHT22;31237;45.586;13.782;2023-07-29T04:00:26;21.10;91.60
45491;DHT22;31237;45.586;13.782;2023-07-29T04:02:52;21.20;91.70
45491;DHT22;31237;45.586;13.782;2023-07-29T04:05:18;21.10;91.70
45491;DHT22;31237;45.586;13.782;2023-07-29T04:07:44;21.10;91.70
45491;DHT22;31237;45.586;13.782;2023-07-29T04:10:10;21.20;91.80
45491;DHT22;31237;45.586;13.782;2023-07-29T04:12:36;21.20;91.80
45491;DHT22;31237;45.586;13.782;2023-07-29T04:15:02;21.20;91.90
45491;DHT22;31237;45.586;13.782;2023-07-29T04:17:28;21.20;91.90
45491;DHT22;31237;45.586;13.782;2023-07-29T04:19:54;21.30;92.00
45491;DHT22;31237;45.586;13.782;2023-07-29T04:22:19;21.30;92.00
45491;DHT22;31237;45.586;13.782;2023-07-29T04:24:45;21.30;92.00
45491;DHT22;31237;45.586;13.782;2023-07-29T04:27:11;21.30;92.10
45491;DHT22;31237;45.586;13.782;2023-07-29T04:29:37;21.30;92.10
45491;DHT22;31237;45.586;13.782;2023-07-29T04:32:04;21.40;92.10
45491;DHT22;31237;45.586;13.782;2023-07-29T04:34:29;21.40;92.20
45491;DHT22;31237;45.586;13.782;2023-07-29T04:36:55;21.40;92.20
45491;DHT22;31237;45.586;13.782;2023-07-29T04:39:21;21.40;92.20
45491;DHT22;31237;45.586;13.782;2023-07-29T04:41:46;21.50;92.30
45491;DHT22;31237;45.586;13.782;2023-07-29T04:44:12;21.50;92.30
45491;DHT22;31237;45.586;13.782;2023-07-29T04:46:38;21.50;92.30
45491;DHT22;31237;45.586;13.782;2023-07-29T04:49:04;21.60;92.30
45491;DHT22;31237;45.586;13.782;2023-07-29T04:51:30;21.60;92.40
45491;DHT22;31237;45.586;13.782;2023-07-29T04:53:57;21.60;92.40
45491;DHT22;31237;45.586;13.782;2023-07-29T04:56:23;21.70;92.50
45491;DHT22;31237;45.586;13.782;2023-07-29T04:58:49;21.70;92.50
45491;DHT22;31237;45.586;13.782;2023-07-29T05:01:15;21.80;92.50
45491;DHT22;31237;45.586;13.782;2023-07-29T05:03:40;21.80;92.60
45491;DHT22;31237;45.586;13.782;2023-07-29T05:06:06;21.90;92.60
45491;DHT22;31237;45.586;13.782;2023-07-29T05:08:32;22.00;92.50
45491;DHT22;31237;45.586;13.782;2023-07-29T05:10:58;22.10;92.50
45491;DHT22;31237;45.586;13.782;2023-07-29T05:13:23;22.10;92.40
45491;DHT22;31237;45.586;13.782;2023-07-29T05:15:50;22.20;92.40
45491;DHT22;31237;45.586;13.782;2023-07-29T05:18:16;22.20;92.40
45491;DHT22;31237;45.586;13.782;2023-07-29T05:20:42;22.30;92.40
45491;DHT22;31237;45.586;13.782;2023-07-29T05:23:08;22.40;92.40
45491;DHT22;31237;45.586;13.782;2023-07-29T05:25:34;22.40;92.30
45491;DHT22;31237;45.586;13.782;2023-07-29T05:28:03;22.50;92.30
45491;DHT22;31237;45.586;13.782;2023-07-29T05:30:30;22.50;92.30
45491;DHT22;31237;45.586;13.782;2023-07-29T05:32:59;22.60;92.50
45491;DHT22;31237;45.586;13.782;2023-07-29T05:35:25;22.60;92.20
45491;DHT22;31237;45.586;13.782;2023-07-29T05:37:51;22.60;92.20
45491;DHT22;31237;45.586;13.782;2023-07-29T05:40:17;22.60;92.20
45491;DHT22;31237;45.586;13.782;2023-07-29T05:42:43;22.70;92.20
45491;DHT22;31237;45.586;13.782;2023-07-29T05:45:10;22.70;92.20
45491;DHT22;31237;45.586;13.782;2023-07-29T05:47:36;22.70;92.20
45491;DHT22;31237;45.586;13.782;2023-07-29T05:50:02;22.70;92.20
45491;DHT22;31237;45.586;13.782;2023-07-29T05:52:30;22.70;92.10
45491;DHT22;31237;45.586;13.782;2023-07-29T05:54:56;22.70;92.20
45491;DHT22;31237;45.586;13.782;2023-07-29T05:57:22;22.70;92.20
45491;DHT22;31237;45.586;13.782;2023-07-29T05:59:47;22.80;92.20
45491;DHT22;31237;45.586;13.782;2023-07-29T06:02:13;22.80;92.20
45491;DHT22;31237;45.586;13.782;2023-07-29T06:04:39;22.90;92.20
45491;DHT22;31237;45.586;13.782;2023-07-29T06:07:05;22.90;92.20
45491;DHT22;31237;45.586;13.782;2023-07-29T06:09:31;23.00;92.20
45491;DHT22;31237;45.586;13.782;2023-07-29T06:11:56;23.10;92.10
45491;DHT22;31237;45.586;13.782;2023-07-29T06:14:22;23.10;92.00
45491;DHT22;31237;45.586;13.782;2023-07-29T06:16:48;23.20;92.30
45491;DHT22;31237;45.586;13.782;2023-07-29T06:19:13;23.30;91.90
45491;DHT22;31237;45.586;13.782;2023-07-29T06:21:39;23.40;91.90
45491;DHT22;31237;45.586;13.782;2023-07-29T06:24:05;23.50;91.80
45491;DHT22;31237;45.586;13.782;2023-07-29T06:26:30;23.60;91.70
45491;DHT22;31237;45.586;13.782;2023-07-29T06:28:56;23.70;91.60
45491;DHT22;31237;45.586;13.782;2023-07-29T06:31:22;23.70;91.50
45491;DHT22;31237;45.586;13.782;2023-07-29T06:33:48;23.80;91.40
45491;DHT22;31237;45.586;13.782;2023-07-29T06:36:13;23.90;91.40
45491;DHT22;31237;45.586;13.782;2023-07-29T06:38:39;24.00;91.20
45491;DHT22;31237;45.586;13.782;2023-07-29T06:41:06;24.10;91.00
45491;DHT22;31237;45.586;13.782;2023-07-29T06:43:32;24.20;90.80
45491;DHT22;31237;45.586;13.782;2023-07-29T06:45:58;24.20;90.80
45491;DHT22;31237;45.586;13.782;2023-07-29T06:48:23;24.20;90.80
45491;DHT22;31237;45.586;13.782;2023-07-29T06:50:49;24.20;90.80
45491;DHT22;31237;45.586;13.782;2023-07-29T06:53:20;24.30;90.80
45491;DHT22;31237;45.586;13.782;2023-07-29T06:55:46;24.30;90.80
45491;DHT22;31237;45.586;13.782;2023-07-29T06:58:12;24.40;90.80
45491;DHT22;31237;45.586;13.782;2023-07-29T07:00:38;24.50;90.70
45491;DHT22;31237;45.586;13.782;2023-07-29T07:03:03;24.50;90.80
45491;DHT22;31237;45.586;13.782;2023-07-29T07:05:29;24.60;90.70
45491;DHT22;31237;45.586;13.782;2023-07-29T07:07:55;24.70;90.60
45491;DHT22;31237;45.586;13.782;2023-07-29T07:10:20;24.80;90.50
45491;DHT22;31237;45.586;13.782;2023-07-29T07:12:46;24.90;90.30
45491;DHT22;31237;45.586;13.782;2023-07-29T07:15:12;24.90;90.50
45491;DHT22;31237;45.586;13.782;2023-07-29T07:17:38;24.90;90.10
45491;DHT22;31237;45.586;13.782;2023-07-29T07:20:04;24.90;90.10
45491;DHT22;31237;45.586;13.782;2023-07-29T07:22:30;24.90;90.20
45491;DHT22;31237;45.586;13.782;2023-07-29T07:24:56;24.90;90.10
45491;DHT22;31237;45.586;13.782;2023-07-29T07:27:21;25.00;90.00
45491;DHT22;31237;45.586;13.782;2023-07-29T07:29:47;25.10;90.00
45491;DHT22;31237;45.586;13.782;2023-07-29T07:32:13;25.20;90.00
45491;DHT22;31237;45.586;13.782;2023-07-29T07:34:38;25.30;89.90
45491;DHT22;31237;45.586;13.782;2023-07-29T07:37:04;25.50;89.70
45491;DHT22;31237;45.586;13.782;2023-07-29T07:39:31;25.70;89.60
45491;DHT22;31237;45.586;13.782;2023-07-29T07:41:56;25.80;89.10
45491;DHT22;31237;45.586;13.782;2023-07-29T07:44:22;26.00;88.80
45491;DHT22;31237;45.586;13.782;2023-07-29T07:46:48;26.10;89.00
45491;DHT22;31237;45.586;13.782;2023-07-29T07:49:14;26.30;87.90
45491;DHT22;31237;45.586;13.782;2023-07-29T07:51:39;26.30;87.30
45491;DHT22;31237;45.586;13.782;2023-07-29T07:54:05;26.40;87.20
45491;DHT22;31237;45.586;13.782;2023-07-29T07:56:31;26.50;87.00
45491;DHT22;31237;45.586;13.782;2023-07-29T07:58:56;26.50;86.60
45491;DHT22;31237;45.586;13.782;2023-07-29T08:01:22;26.70;86.10
45491;DHT22;31237;45.586;13.782;2023-07-29T08:03:48;26.70;85.60
45491;DHT22;31237;45.586;13.782;2023-07-29T08:06:14;26.80;85.00
45491;DHT22;31237;45.586;13.782;2023-07-29T08:08:39;27.00;84.50
45491;DHT22;31237;45.586;13.782;2023-07-29T08:11:05;27.10;84.00
45491;DHT22;31237;45.586;13.782;2023-07-29T08:13:31;27.30;83.30
45491;DHT22;31237;45.586;13.782;2023-07-29T08:15:56;27.40;82.20
45491;DHT22;31237;45.586;13.782;2023-07-29T08:18:22;27.50;80.90
45491;DHT22;31237;45.586;13.782;2023-07-29T08:20:56;27.60;80.10
45491;DHT22;31237;45.586;13.782;2023-07-29T08:23:24;27.70;78.70
45491;DHT22;31237;45.586;13.782;2023-07-29T08:25:57;27.80;78.30
45491;DHT22;31237;45.586;13.782;2023-07-29T08:28:30;27.90;77.00
45491;DHT22;31237;45.586;13.782;2023-07-29T08:30:57;28.00;76.10
45491;DHT22;31237;45.586;13.782;2023-07-29T08:33:22;28.10;75.20
45491;DHT22;31237;45.586;13.782;2023-07-29T08:35:48;28.10;74.00
45491;DHT22;31237;45.586;13.782;2023-07-29T08:38:14;28.20;73.50
45491;DHT22;31237;45.586;13.782;2023-07-29T08:43:33;28.40;71.00
45491;DHT22;31237;45.586;13.782;2023-07-29T08:46:00;28.40;70.30
45491;DHT22;31237;45.586;13.782;2023-07-29T08:48:44;28.40;68.90
45491;DHT22;31237;45.586;13.782;2023-07-29T08:51:11;28.40;68.00
45491;DHT22;31237;45.586;13.782;2023-07-29T08:53:37;28.40;67.10
45491;DHT22;31237;45.586;13.782;2023-07-29T08:56:04;28.40;66.10
45491;DHT22;31237;45.586;13.782;2023-07-29T08:58:32;28.40;66.90
45491;DHT22;31237;45.586;13.782;2023-07-29T09:00:58;28.40;65.90
45491;DHT22;31237;45.586;13.782;2023-07-29T09:03:24;28.50;65.60
45491;DHT22;31237;45.586;13.782;2023-07-29T09:05:50;28.50;65.20
45491;DHT22;31237;45.586;13.782;2023-07-29T09:08:16;28.60;65.90
45491;DHT22;31237;45.586;13.782;2023-07-29T09:10:42;28.70;66.30
45491;DHT22;31237;45.586;13.782;2023-07-29T09:13:08;28.70;66.00
45491;DHT22;31237;45.586;13.782;2023-07-29T09:15:36;28.80;66.30
45491;DHT22;31237;45.586;13.782;2023-07-29T09:18:28;28.90;64.70
45491;DHT22;31237;45.586;13.782;2023-07-29T09:20:54;29.00;63.90
45491;DHT22;31237;45.586;13.782;2023-07-29T09:23:19;29.00;63.70
45491;DHT22;31237;45.586;13.782;2023-07-29T09:25:48;29.00;63.80
45491;DHT22;31237;45.586;13.782;2023-07-29T09:28:15;29.00;64.00
45491;DHT22;31237;45.586;13.782;2023-07-29T09:30:44;29.00;63.20
45491;DHT22;31237;45.586;13.782;2023-07-29T09:33:10;29.10;63.30
45491;DHT22;31237;45.586;13.782;2023-07-29T09:35:36;29.10;63.10
45491;DHT22;31237;45.586;13.782;2023-07-29T09:38:06;29.20;63.30
45491;DHT22;31237;45.586;13.782;2023-07-29T09:40:39;29.30;63.10
45491;DHT22;31237;45.586;13.782;2023-07-29T09:43:06;29.30;62.60
45491;DHT22;31237;45.586;13.782;2023-07-29T09:45:34;29.20;62.60
45491;DHT22;31237;45.586;13.782;2023-07-29T09:48:04;29.10;63.30
45491;DHT22;31237;45.586;13.782;2023-07-29T09:50:35;29.00;63.30
45491;DHT22;31237;45.586;13.782;2023-07-29T09:53:02;28.90;63.60
45491;DHT22;31237;45.586;13.782;2023-07-29T09:55:29;28.80;64.00
45491;DHT22;31237;45.586;13.782;2023-07-29T09:57:59;28.70;64.50
45491;DHT22;31237;45.586;13.782;2023-07-29T10:00:28;28.50;64.80
45491;DHT22;31237;45.586;13.782;2023-07-29T10:02:54;28.40;65.30
45491;DHT22;31237;45.586;13.782;2023-07-29T10:05:22;28.40;66.10
45491;DHT22;31237;45.586;13.782;2023-07-29T10:07:49;28.40;66.00
45491;DHT22;31237;45.586;13.782;2023-07-29T10:10:15;28.40;65.50
45491;DHT22;31237;45.586;13.782;2023-07-29T10:12:42;28.40;65.60
45491;DHT22;31237;45.586;13.782;2023-07-29T10:15:08;28.50;64.80
45491;DHT22;31237;45.586;13.782;2023-07-29T10:17:36;28.60;65.10
45491;DHT22;31237;45.586;13.782;2023-07-29T10:20:04;28.70;64.60
45491;DHT22;31237;45.586;13.782;2023-07-29T10:22:36;28.80;64.60
45491;DHT22;31237;45.586;13.782;2023-07-29T10:25:10;28.90;64.90
45491;DHT22;31237;45.586;13.782;2023-07-29T10:28:07;29.00;64.40
45491;DHT22;31237;45.586;13.782;2023-07-29T10:30:33;29.00;64.20
45491;DHT22;31237;45.586;13.782;2023-07-29T10:33:02;29.00;64.00
45491;DHT22;31237;45.586;13.782;2023-07-29T10:35:28;29.10;64.40
45491;DHT22;31237;45.586;13.782;2023-07-29T10:37:54;29.00;64.40
45491;DHT22;31237;45.586;13.782;2023-07-29T10:40:20;29.10;64.80
45491;DHT22;31237;45.586;13.782;2023-07-29T10:43:03;29.10;64.30
45491;DHT22;31237;45.586;13.782;2023-07-29T10:45:41;29.30;64.10
45491;DHT22;31237;45.586;13.782;2023-07-29T10:48:11;29.30;63.90
45491;DHT22;31237;45.586;13.782;2023-07-29T10:50:37;29.40;63.50
45491;DHT22;31237;45.586;13.782;2023-07-29T10:53:04;29.50;63.40
45491;DHT22;31237;45.586;13.782;2023-07-29T10:55:35;29.50;63.20
45491;DHT22;31237;45.586;13.782;2023-07-29T10:58:22;29.50;63.40
45491;DHT22;31237;45.586;13.782;2023-07-29T11:00:49;29.50;63.80
45491;DHT22;31237;45.586;13.782;2023-07-29T11:03:15;29.40;63.80
45491;DHT22;31237;45.586;13.782;2023-07-29T11:05:51;29.40;63.40
45491;DHT22;31237;45.586;13.782;2023-07-29T11:08:30;29.30;62.60
45491;DHT22;31237;45.586;13.782;2023-07-29T11:11:12;29.10;63.00
45491;DHT22;31237;45.586;13.782;2023-07-29T11:13:38;29.00;63.20
45491;DHT22;31237;45.586;13.782;2023-07-29T11:16:05;28.80;63.80
45491;DHT22;31237;45.586;13.782;2023-07-29T11:18:33;28.80;64.50
45491;DHT22;31237;45.586;13.782;2023-07-29T11:21:00;28.80;65.00
45491;DHT22;31237;45.586;13.782;2023-07-29T11:23:33;28.90;65.60
45491;DHT22;31237;45.586;13.782;2023-07-29T11:26:01;29.00;66.30
45491;DHT22;31237;45.586;13.782;2023-07-29T11:28:27;29.10;65.80
45491;DHT22;31237;45.586;13.782;2023-07-29T11:30:55;29.20;65.60
45491;DHT22;31237;45.586;13.782;2023-07-29T11:33:25;29.20;65.60
45491;DHT22;31237;45.586;13.782;2023-07-29T11:35:51;29.30;65.40
45491;DHT22;31237;45.586;13.782;2023-07-29T11:38:19;29.30;64.70
45491;DHT22;31237;45.586;13.782;2023-07-29T11:41:01;29.30;64.40
45491;DHT22;31237;45.586;13.782;2023-07-29T11:43:35;29.30;64.20
45491;DHT22;31237;45.586;13.782;2023-07-29T11:46:01;29.30;64.70
45491;DHT22;31237;45.586;13.782;2023-07-29T11:48:28;29.40;64.80
45491;DHT22;31237;45.586;13.782;2023-07-29T11:50:54;29.50;63.80
45491;DHT22;31237;45.586;13.782;2023-07-29T11:53:20;29.60;62.50
45491;DHT22;31237;45.586;13.782;2023-07-29T11:55:53;29.60;62.40
45491;DHT22;31237;45.586;13.782;2023-07-29T11:58:20;29.60;62.80
45491;DHT22;31237;45.586;13.782;2023-07-29T12:00:46;29.60;62.50
45491;DHT22;31237;45.586;13.782;2023-07-29T12:03:12;29.70;62.30
45491;DHT22;31237;45.586;13.782;2023-07-29T12:05:39;29.70;62.10
45491;DHT22;31237;45.586;13.782;2023-07-29T12:08:05;29.70;61.90
45491;DHT22;31237;45.586;13.782;2023-07-29T12:10:31;29.80;61.30
45491;DHT22;31237;45.586;13.782;2023-07-29T12:12:57;29.80;60.50
45491;DHT22;31237;45.586;13.782;2023-07-29T12:15:27;29.70;60.70
45491;DHT22;31237;45.586;13.782;2023-07-29T12:17:54;29.70;60.40
45491;DHT22;31237;45.586;13.782;2023-07-29T12:20:22;29.70;60.00
45491;DHT22;31237;45.586;13.782;2023-07-29T12:22:59;29.70;59.40
45491;DHT22;31237;45.586;13.782;2023-07-29T12:25:30;29.60;59.70
45491;DHT22;31237;45.586;13.782;2023-07-29T12:27:56;29.60;59.80
45491;DHT22;31237;45.586;13.782;2023-07-29T12:30:23;29.60;59.90
45491;DHT22;31237;45.586;13.782;2023-07-29T12:32:50;29.50;59.80
45491;DHT22;31237;45.586;13.782;2023-07-29T12:35:15;29.50;60.00
45491;DHT22;31237;45.586;13.782;2023-07-29T12:37:41;29.40;59.80
45491;DHT22;31237;45.586;13.782;2023-07-29T12:40:25;29.20;60.30
45491;DHT22;31237;45.586;13.782;2023-07-29T12:42:51;29.20;61.00
45491;DHT22;31237;45.586;13.782;2023-07-29T12:45:17;29.20;60.90
45491;DHT22;31237;45.586;13.782;2023-07-29T12:47:43;29.10;60.70
45491;DHT22;31237;45.586;13.782;2023-07-29T12:50:09;29.10;60.90
45491;DHT22;31237;45.586;13.782;2023-07-29T12:52:35;29.20;60.60
45491;DHT22;31237;45.586;13.782;2023-07-29T12:55:01;29.10;60.20
45491;DHT22;31237;45.586;13.782;2023-07-29T12:57:26;29.10;60.40
45491;DHT22;31237;45.586;13.782;2023-07-29T12:59:52;29.10;60.70
45491;DHT22;31237;45.586;13.782;2023-07-29T13:02:18;29.10;60.50
45491;DHT22;31237;45.586;13.782;2023-07-29T13:04:43;29.10;60.00
45491;DHT22;31237;45.586;13.782;2023-07-29T13:07:09;29.00;60.00
45491;DHT22;31237;45.586;13.782;2023-07-29T13:09:35;28.90;59.90
45491;DHT22;31237;45.586;13.782;2023-07-29T13:12:00;28.90;60.70
45491;DHT22;31237;45.586;13.782;2023-07-29T13:14:26;28.80;61.40
45491;DHT22;31237;45.586;13.782;2023-07-29T13:16:52;28.80;61.80
45491;DHT22;31237;45.586;13.782;2023-07-29T13:19:20;28.70;61.40
45491;DHT22;31237;45.586;13.782;2023-07-29T13:21:46;28.70;61.00
45491;DHT22;31237;45.586;13.782;2023-07-29T13:24:12;28.70;60.10
45491;DHT22;31237;45.586;13.782;2023-07-29T13:26:37;28.80;60.70
45491;DHT22;31237;45.586;13.782;2023-07-29T13:29:03;28.70;60.90
45491;DHT22;31237;45.586;13.782;2023-07-29T13:31:30;28.70;61.40
45491;DHT22;31237;45.586;13.782;2023-07-29T13:33:56;28.70;63.00
45491;DHT22;31237;45.586;13.782;2023-07-29T13:36:23;28.70;63.10
45491;DHT22;31237;45.586;13.782;2023-07-29T13:38:48;28.60;64.80
45491;DHT22;31237;45.586;13.782;2023-07-29T13:41:14;28.50;65.50
45491;DHT22;31237;45.586;13.782;2023-07-29T13:43:40;28.60;66.20
45491;DHT22;31237;45.586;13.782;2023-07-29T13:46:05;28.50;64.80
45491;DHT22;31237;45.586;13.782;2023-07-29T13:48:31;28.50;66.60
45491;DHT22;31237;45.586;13.782;2023-07-29T13:50:58;28.50;68.20
45491;DHT22;31237;45.586;13.782;2023-07-29T13:53:24;28.50;69.10
45491;DHT22;31237;45.586;13.782;2023-07-29T13:55:51;28.50;69.40
45491;DHT22;31237;45.586;13.782;2023-07-29T13:58:16;28.50;69.70
45491;DHT22;31237;45.586;13.782;2023-07-29T14:00:42;28.40;70.10
45491;DHT22;31237;45.586;13.782;2023-07-29T14:03:08;28.30;70.40
45491;DHT22;31237;45.586;13.782;2023-07-29T14:05:34;28.30;70.90
45491;DHT22;31237;45.586;13.782;2023-07-29T14:07:59;28.30;70.00
45491;DHT22;31237;45.586;13.782;2023-07-29T14:10:25;28.20;69.40
45491;DHT22;31237;45.586;13.782;2023-07-29T14:12:51;28.20;70.10
45491;DHT22;31237;45.586;13.782;2023-07-29T14:15:17;28.20;70.60
45491;DHT22;31237;45.586;13.782;2023-07-29T14:17:43;28.20;70.00
45491;DHT22;31237;45.586;13.782;2023-07-29T14:20:09;28.10;70.80
45491;DHT22;31237;45.586;13.782;2023-07-29T14:22:35;28.20;72.40
45491;DHT22;31237;45.586;13.782;2023-07-29T14:25:01;28.20;74.20
45491;DHT22;31237;45.586;13.782;2023-07-29T14:27:27;28.30;74.30
45491;DHT22;31237;45.586;13.782;2023-07-29T14:29:53;28.30;74.80
45491;DHT22;31237;45.586;13.782;2023-07-29T14:32:18;28.30;74.10
45491;DHT22;31237;45.586;13.782;2023-07-29T14:34:44;28.30;74.20
45491;DHT22;31237;45.586;13.782;2023-07-29T14:37:10;28.30;74.80
45491;DHT22;31237;45.586;13.782;2023-07-29T14:39:35;28.40;75.30
45491;DHT22;31237;45.586;13.782;2023-07-29T14:42:01;28.40;76.30
45491;DHT22;31237;45.586;13.782;2023-07-29T14:44:27;28.40;77.60
45491;DHT22;31237;45.586;13.782;2023-07-29T14:46:52;28.30;77.60
45491;DHT22;31237;45.586;13.782;2023-07-29T14:49:19;28.30;77.80
45491;DHT22;31237;45.586;13.782;2023-07-29T14:51:44;28.30;78.00
45491;DHT22;31237;45.586;13.782;2023-07-29T14:54:10;28.20;78.70
45491;DHT22;31237;45.586;13.782;2023-07-29T14:56:36;28.10;79.40
45491;DHT22;31237;45.586;13.782;2023-07-29T14:59:01;28.10;79.80
45491;DHT22;31237;45.586;13.782;2023-07-29T15:01:27;28.00;80.20
45491;DHT22;31237;45.586;13.782;2023-07-29T15:03:53;28.00;80.20
45491;DHT22;31237;45.586;13.782;2023-07-29T15:06:19;28.00;80.50
45491;DHT22;31237;45.586;13.782;2023-07-29T15:08:44;27.90;80.40
45491;DHT22;31237;45.586;13.782;2023-07-29T15:11:10;27.90;80.80
45491;DHT22;31237;45.586;13.782;2023-07-29T15:13:36;27.90;80.90
45491;DHT22;31237;45.586;13.782;2023-07-29T15:16:02;27.90;81.30
45491;DHT22;31237;45.586;13.782;2023-07-29T15:18:27;27.80;81.40
45491;DHT22;31237;45.586;13.782;2023-07-29T15:20:57;27.80;81.60
45491;DHT22;31237;45.586;13.782;2023-07-29T15:23:23;27.80;81.60